createdAt,value
2018-04-08T00:01:56.789Z,5.00
2018-04-08T00:04:25.069Z,5.10
2018-04-08T00:06:53.307Z,5.23
2018-04-08T00:09:21.586Z,5.07
2018-04-08T00:11:49.913Z,4.80
2018-04-08T00:14:18.120Z,6.03
2018-04-08T00:16:47.152Z,4.67
2018-04-08T00:19:15.456Z,5.27
2018-04-08T00:21:43.726Z,5.37
2018-04-08T00:24:12.037Z,5.37
2018-04-08T00:26:41.056Z,5.00
2018-04-08T00:29:10.338Z,4.63
2018-04-08T00:31:38.584Z,5.90
2018-04-08T00:34:07.615Z,5.57
2018-04-08T00:36:38.714Z,5.27
2018-04-08T00:39:07.406Z,4.70
2018-04-08T00:41:35.750Z,5.70
2018-04-08T00:44:04.826Z,5.13
2018-04-08T00:46:33.221Z,5.50
2018-04-08T00:49:03.056Z,5.30
2018-04-08T00:51:31.412Z,5.13
2018-04-08T00:54:11.577Z,4.60
2018-04-08T00:56:40.637Z,5.10
2018-04-08T00:59:08.651Z,5.30
2018-04-08T01:01:36.694Z,5.97
2018-04-08T01:04:04.781Z,5.30
2018-04-08T01:06:32.857Z,5.70
2018-04-08T01:09:00.912Z,5.13
2018-04-08T01:11:28.929Z,5.83
2018-04-08T01:13:57.957Z,5.67
2018-04-08T01:16:26.745Z,6.03
2018-04-08T01:18:55.910Z,6.87
2018-04-08T01:21:24.949Z,5.70
2018-04-08T01:23:53.206Z,5.47
2018-04-08T01:26:21.622Z,5.90
2018-04-08T01:28:49.943Z,6.40
2018-04-08T01:31:18.642Z,5.70
2018-04-08T01:33:47.703Z,6.57
2018-04-08T01:36:16.780Z,5.20
2018-04-08T01:38:45.107Z,6.57
2018-04-08T01:41:13.440Z,6.17
2018-04-08T01:43:41.777Z,5.40
2018-04-08T01:46:10.162Z,5.10
2018-04-08T01:48:39.500Z,5.30
2018-04-08T01:51:07.817Z,5.03
2018-04-08T01:53:36.061Z,5.27
2018-04-08T01:56:04.330Z,5.40
2018-04-08T01:58:33.360Z,5.10
2018-04-08T02:01:01.673Z,5.63
2018-04-08T02:03:29.965Z,5.40
2018-04-08T02:05:59.013Z,6.07
2018-04-08T02:08:27.296Z,5.90
2018-04-08T02:10:55.532Z,5.90
2018-04-08T02:13:24.625Z,5.40
2018-04-08T02:15:52.916Z,6.00
2018-04-08T02:18:22.003Z,5.70
2018-04-08T02:20:51.074Z,5.53
2018-04-08T02:23:20.074Z,6.80
2018-04-08T02:25:48.413Z,5.23
2018-04-08T02:28:16.637Z,6.00
2018-04-08T02:30:44.894Z,5.20
2018-04-08T02:33:13.264Z,5.70
2018-04-08T02:35:42.276Z,5.70
2018-04-08T02:38:10.540Z,5.40
2018-04-08T02:40:40.082Z,5.40
2018-04-08T02:43:09.316Z,5.13
2018-04-08T02:45:37.536Z,5.37
2018-04-08T02:48:05.840Z,6.00
2018-04-08T02:50:34.075Z,6.80
2018-04-08T02:53:03.103Z,4.80
2018-04-08T02:55:32.079Z,6.50
2018-04-08T02:58:00.379Z,4.90
2018-04-08T03:00:28.620Z,5.70
2018-04-08T03:02:56.897Z,5.60
2018-04-08T03:05:25.131Z,6.40
2018-04-08T03:07:53.399Z,5.53
2018-04-08T03:10:21.642Z,5.23
2018-04-08T03:12:50.756Z,4.43
2018-04-08T03:15:19.837Z,5.37
2018-04-08T03:17:48.068Z,5.17
2018-04-08T03:20:16.387Z,5.17
2018-04-08T03:22:44.649Z,5.30
2018-04-08T03:25:12.907Z,5.37
2018-04-08T03:27:41.178Z,5.30
2018-04-08T03:30:09.445Z,4.60
2018-04-08T03:32:38.524Z,5.67
2018-04-08T03:35:06.750Z,6.00
2018-04-08T03:37:35.022Z,5.30
2018-04-08T03:40:04.140Z,5.30
2018-04-08T03:42:32.434Z,5.17
2018-04-08T03:45:00.710Z,5.60
2018-04-08T03:47:28.967Z,5.10
2018-04-08T03:49:59.553Z,4.90
2018-04-08T03:52:29.319Z,5.57
2018-04-08T03:54:57.558Z,5.30
2018-04-08T03:57:26.738Z,6.13
2018-04-08T03:59:55.067Z,5.80
2018-04-08T04:02:23.334Z,5.43
2018-04-08T04:04:51.581Z,5.80
2018-04-08T04:07:21.256Z,6.70
2018-04-08T04:09:50.567Z,5.50
2018-04-08T04:12:18.984Z,6.10
2018-04-08T04:14:47.230Z,5.70
2018-04-08T04:17:16.206Z,6.60
2018-04-08T04:19:56.322Z,5.30
2018-04-08T04:22:37.456Z,6.20
2018-04-08T04:25:40.203Z,6.20
2018-04-08T04:28:08.477Z,6.30
2018-04-08T04:30:36.764Z,5.63
2018-04-08T04:33:05.036Z,6.00
2018-04-08T04:35:33.305Z,6.00
2018-04-08T04:38:02.324Z,6.07
2018-04-08T04:40:30.571Z,6.30
2018-04-08T04:42:58.835Z,6.10
2018-04-08T04:45:27.070Z,6.20
2018-04-08T04:47:56.241Z,6.37
2018-04-08T04:50:25.244Z,6.17
2018-04-08T04:52:54.281Z,5.50
2018-04-08T04:55:22.589Z,5.70
2018-04-08T04:57:51.638Z,5.87
2018-04-08T05:00:19.905Z,5.30
2018-04-08T05:02:48.936Z,6.07
2018-04-08T05:05:17.212Z,5.23
2018-04-08T05:07:45.436Z,5.20
2018-04-08T05:10:14.491Z,4.70
2018-04-08T05:12:42.719Z,5.03
2018-04-08T05:15:10.990Z,6.60
2018-04-08T05:17:40.891Z,5.77
2018-04-08T05:20:10.030Z,6.17
2018-04-08T05:22:38.317Z,5.80
2018-04-08T05:25:06.599Z,5.90
2018-04-08T05:27:36.368Z,6.27
2018-04-08T05:30:04.626Z,6.17
2018-04-08T05:32:32.936Z,6.00
2018-04-08T05:35:01.332Z,5.60
2018-04-08T05:37:31.311Z,7.03
2018-04-08T05:39:59.556Z,6.53
2018-04-08T05:42:28.569Z,6.97
2018-04-08T05:44:57.461Z,6.97
2018-04-08T05:47:25.683Z,6.00
2018-04-08T05:49:53.970Z,7.40
2018-04-08T05:52:22.216Z,8.10
2018-04-08T05:54:51.318Z,8.30
2018-04-08T05:57:19.581Z,7.47
2018-04-08T05:59:47.821Z,7.57
2018-04-08T06:02:16.173Z,7.93
2018-04-08T06:04:44.460Z,7.80
2018-04-08T06:07:12.721Z,8.00
2018-04-08T06:09:41.002Z,8.10
2018-04-08T06:12:09.454Z,7.70
2018-04-08T06:14:38.491Z,8.00
2018-04-08T06:17:07.073Z,7.57
2018-04-08T06:19:35.362Z,8.30
2018-04-08T06:22:03.599Z,7.47
2018-04-08T06:24:31.879Z,8.63
2018-04-08T06:27:00.144Z,8.37
2018-04-08T06:29:29.193Z,7.47
2018-04-08T06:31:57.500Z,8.70
2018-04-08T06:34:25.737Z,7.93
2018-04-08T06:36:54.003Z,8.10
2018-04-08T06:39:22.268Z,8.83
2018-04-08T06:41:51.345Z,8.33
2018-04-08T06:44:20.455Z,8.00
2018-04-08T06:46:48.732Z,7.70
2018-04-08T06:49:17.062Z,8.47
2018-04-08T06:51:46.177Z,8.30
2018-04-08T06:54:15.491Z,9.00
2018-04-08T06:56:45.467Z,9.00
2018-04-08T06:59:13.725Z,8.40
2018-04-08T07:01:42.814Z,8.80
2018-04-08T07:04:11.086Z,8.40
2018-04-08T07:06:39.378Z,8.67
2018-04-08T07:09:10.245Z,7.83
2018-04-08T07:11:38.590Z,8.73
2018-04-08T07:14:06.854Z,8.53
2018-04-08T07:16:35.594Z,8.63
2018-04-08T07:19:04.634Z,8.70
2018-04-08T07:21:33.047Z,8.80
2018-04-08T07:24:01.375Z,8.37
2018-04-08T07:26:29.709Z,8.47
2018-04-08T07:28:57.951Z,7.53
2018-04-08T07:31:26.222Z,9.33
2018-04-08T07:33:56.054Z,9.60
2018-04-08T07:36:24.349Z,9.27
2018-04-08T07:38:52.632Z,8.80
2018-04-08T07:41:20.893Z,7.90
2018-04-08T07:43:49.272Z,8.97
2018-04-08T07:46:17.624Z,9.83
2018-04-08T07:48:46.664Z,8.90
2018-04-08T07:51:14.945Z,9.27
2018-04-08T07:53:43.266Z,7.87
2018-04-08T07:56:12.402Z,7.63
2018-04-08T07:58:41.332Z,8.53
2018-04-08T08:01:09.638Z,7.83
2018-04-08T08:03:37.869Z,9.03
2018-04-08T08:06:06.137Z,8.23
2018-04-08T08:08:35.319Z,8.10
2018-04-08T08:11:04.338Z,7.37
2018-04-08T08:13:32.649Z,8.70
2018-04-08T08:16:00.913Z,8.10
2018-04-08T08:18:29.175Z,7.70
2018-04-08T08:20:57.461Z,7.93
2018-04-08T08:23:25.969Z,7.60
2018-04-08T08:25:54.746Z,8.07
2018-04-08T08:28:22.986Z,8.20
2018-04-08T08:30:51.728Z,7.13
2018-04-08T08:33:20.930Z,7.87
2018-04-08T08:35:49.228Z,7.67
2018-04-08T08:38:17.503Z,8.70
2018-04-08T08:40:45.771Z,6.87
2018-04-08T08:43:14.808Z,7.27
2018-04-08T08:45:43.017Z,7.90
2018-04-08T08:48:14.822Z,7.80
2018-04-08T08:50:43.054Z,8.63
2018-04-08T08:53:11.346Z,8.50
2018-04-08T08:55:39.612Z,7.80
2018-04-08T08:58:08.687Z,8.40
2018-04-08T09:00:36.964Z,7.50
2018-04-08T09:03:05.788Z,9.00
2018-04-08T09:05:34.058Z,6.93
2018-04-08T09:08:03.990Z,10.07
2018-04-08T09:10:32.255Z,7.53
2018-04-08T09:13:01.296Z,7.90
2018-04-08T09:15:29.550Z,9.07
2018-04-08T09:17:57.832Z,8.20
2018-04-08T09:20:41.087Z,7.50
2018-04-08T09:23:14.958Z,8.27
2018-04-08T09:25:44.964Z,8.10
2018-04-08T09:28:14.083Z,6.77
2018-04-08T09:30:42.272Z,8.67
2018-04-08T09:33:10.546Z,8.80
2018-04-08T09:35:39.247Z,8.07
2018-04-08T09:38:07.508Z,8.00
2018-04-08T09:40:36.533Z,8.10
2018-04-08T09:43:04.803Z,8.57
2018-04-08T09:45:33.111Z,8.93
2018-04-08T09:48:02.172Z,7.93
2018-04-08T09:50:30.419Z,9.60
2018-04-08T09:52:58.687Z,9.07
2018-04-08T09:55:26.987Z,9.20
2018-04-08T09:57:55.275Z,8.57
2018-04-08T10:00:30.074Z,7.73
2018-04-08T10:03:04.119Z,7.83
2018-04-08T10:05:32.603Z,7.80
2018-04-08T10:08:04.412Z,9.07
2018-04-08T10:10:32.711Z,8.10
2018-04-08T10:13:01.162Z,8.30
2018-04-08T10:15:29.435Z,8.50
2018-04-08T10:17:57.712Z,7.93
2018-04-08T10:20:26.004Z,8.87
2018-04-08T10:22:55.062Z,8.70
2018-04-08T10:25:23.337Z,7.97
2018-04-08T10:27:52.493Z,8.50
2018-04-08T10:30:20.764Z,9.10
2018-04-08T10:32:49.008Z,8.57
2018-04-08T10:35:18.039Z,9.00
2018-04-08T10:37:46.335Z,9.63
2018-04-08T10:40:14.613Z,9.50
2018-04-08T10:42:42.929Z,9.30
2018-04-08T10:45:11.266Z,8.47
2018-04-08T10:47:39.537Z,9.27
2018-04-08T10:50:08.676Z,11.03
2018-04-08T10:52:36.973Z,9.23
2018-04-08T10:55:05.362Z,9.43
2018-04-08T10:57:33.613Z,8.97
2018-04-08T11:00:01.908Z,9.00
2018-04-08T11:02:30.182Z,9.50
2018-04-08T11:04:58.511Z,8.80
2018-04-08T11:07:26.734Z,8.23
2018-04-08T11:09:55.080Z,10.00
2018-04-08T11:12:23.501Z,9.10
2018-04-08T11:14:51.885Z,8.67
2018-04-08T11:17:21.886Z,9.50
2018-04-08T11:19:50.128Z,9.07
2018-04-08T11:22:19.159Z,9.83
2018-04-08T11:24:48.513Z,8.63
2018-04-08T11:27:16.766Z,8.53
2018-04-08T11:29:45.031Z,8.50
2018-04-08T11:32:13.415Z,9.47
2018-04-08T11:34:41.705Z,9.83
2018-04-08T11:37:09.945Z,8.20
2018-04-08T11:39:39.361Z,8.73
2018-04-08T11:42:08.450Z,10.00
2018-04-08T11:44:38.197Z,9.87
2018-04-08T11:47:07.234Z,8.50
2018-04-08T11:49:35.467Z,9.20
2018-04-08T11:52:03.756Z,9.00
2018-04-08T11:54:32.050Z,8.10
2018-04-08T11:57:00.354Z,8.50
2018-04-08T11:59:28.630Z,7.47
2018-04-08T12:01:56.927Z,8.30
2018-04-08T12:04:25.190Z,9.23
2018-04-08T12:06:54.425Z,9.47
2018-04-08T12:09:24.020Z,7.83
2018-04-08T12:11:52.244Z,7.37
2018-04-08T12:14:20.531Z,8.03
2018-04-08T12:16:48.956Z,6.83
2018-04-08T12:19:17.195Z,6.90
2018-04-08T12:21:45.943Z,6.60
2018-04-08T12:24:15.721Z,6.93
2018-04-08T12:26:54.771Z,6.33
2018-04-08T12:29:23.029Z,5.03
2018-04-08T12:31:51.298Z,6.20
2018-04-08T12:34:19.629Z,5.30
2018-04-08T12:36:48.704Z,6.60
2018-04-08T12:39:16.906Z,5.40
2018-04-08T12:41:46.084Z,6.10
2018-04-08T12:44:14.479Z,5.63
2018-04-08T12:46:42.726Z,5.80
2018-04-08T12:49:10.985Z,6.53
2018-04-08T12:51:39.274Z,6.47
2018-04-08T12:54:07.540Z,6.20
2018-04-08T12:56:35.805Z,7.37
2018-04-08T12:59:04.955Z,7.30
2018-04-08T13:01:33.243Z,6.50
2018-04-08T13:04:03.041Z,6.60
2018-04-08T13:06:31.372Z,5.50
2018-04-08T13:09:00.570Z,7.37
2018-04-08T13:11:28.937Z,5.73
2018-04-08T13:13:57.152Z,5.93
2018-04-08T13:16:26.221Z,7.80
2018-04-08T13:18:55.317Z,8.20
2018-04-08T13:21:23.585Z,8.70
2018-04-08T13:23:51.977Z,7.73
2018-04-08T13:26:20.233Z,6.77
2018-04-08T13:28:48.497Z,6.70
2018-04-08T13:31:16.846Z,6.10
2018-04-08T13:33:45.863Z,6.17
2018-04-08T13:36:14.136Z,4.70
2018-04-08T13:38:42.482Z,5.53
2018-04-08T13:41:11.538Z,6.07
2018-04-08T13:43:39.806Z,7.23
2018-04-08T13:46:08.897Z,5.43
2018-04-08T13:48:37.137Z,8.90
2018-04-08T13:51:06.195Z,8.10
2018-04-08T13:53:34.518Z,6.00
2018-04-08T13:56:02.859Z,5.77
2018-04-08T13:58:31.183Z,5.30
2018-04-08T14:00:59.550Z,4.90
2018-04-08T14:03:27.810Z,6.07
2018-04-08T14:05:56.073Z,5.23
2018-04-08T14:08:24.382Z,4.30
2018-04-08T14:10:53.508Z,4.17
2018-04-08T14:13:22.589Z,4.27
2018-04-08T14:15:50.946Z,4.83
2018-04-08T14:18:20.190Z,5.10
2018-04-08T14:20:48.497Z,4.77
2018-04-08T14:23:17.418Z,3.93
2018-04-08T14:25:45.680Z,3.33
2018-04-08T14:28:14.694Z,5.90
2018-04-08T14:30:43.000Z,4.50
2018-04-08T14:33:11.284Z,4.67
2018-04-08T14:35:40.280Z,4.00
2018-04-08T14:38:09.351Z,3.70
2018-04-08T14:40:37.637Z,3.60
2018-04-08T14:43:05.967Z,3.73
2018-04-08T14:45:34.291Z,3.67
2018-04-08T14:48:02.539Z,3.30
2018-04-08T14:50:30.800Z,4.20
2018-04-08T14:52:59.094Z,4.83
2018-04-08T14:55:28.301Z,4.50
2018-04-08T14:57:56.541Z,5.57
2018-04-08T15:00:24.828Z,5.40
2018-04-08T15:02:53.062Z,5.47
2018-04-08T15:05:22.056Z,7.33
2018-04-08T15:07:51.093Z,6.83
2018-04-08T15:10:19.792Z,6.10
2018-04-08T15:12:48.030Z,6.20
2018-04-08T15:15:17.243Z,7.00
2018-04-08T15:17:45.483Z,6.93
2018-04-08T15:20:14.532Z,5.47
2018-04-08T15:22:42.826Z,6.73
2018-04-08T15:25:11.652Z,5.20
2018-04-08T15:27:46.327Z,4.87
2018-04-08T15:30:14.659Z,5.93
2018-04-08T15:32:42.891Z,8.97
2018-04-08T15:35:11.173Z,6.57
2018-04-08T15:37:39.452Z,6.07
2018-04-08T15:40:07.685Z,6.67
2018-04-08T15:42:36.715Z,5.97
2018-04-08T15:45:05.056Z,9.00
2018-04-08T15:47:33.379Z,4.37
2018-04-08T15:50:02.571Z,5.67
2018-04-08T15:52:32.643Z,8.30
2018-04-08T15:55:01.732Z,12.93
2018-04-08T15:57:30.006Z,14.33
2018-04-08T15:59:58.237Z,25.40
2018-04-08T16:02:27.329Z,8.70
2018-04-08T16:04:55.602Z,9.73
2018-04-08T16:07:23.853Z,5.30
2018-04-08T16:09:52.139Z,3.40
2018-04-08T16:12:20.417Z,3.90
2018-04-08T16:14:48.680Z,5.10
2018-04-08T16:17:16.926Z,8.17
2018-04-08T16:19:45.913Z,7.50
2018-04-08T16:22:15.005Z,5.93
2018-04-08T16:24:43.213Z,6.50
2018-04-08T16:27:12.245Z,6.53
2018-04-08T16:29:40.477Z,5.67
2018-04-08T16:32:09.560Z,5.60
2018-04-08T16:34:37.753Z,6.70
2018-04-08T16:37:06.772Z,6.40
2018-04-08T16:39:35.024Z,6.27
2018-04-08T16:42:03.269Z,5.53
2018-04-08T16:44:31.582Z,6.70
2018-04-08T16:47:00.015Z,6.93
2018-04-08T16:49:28.263Z,6.07
2018-04-08T16:51:57.261Z,6.50
2018-04-08T16:54:25.577Z,7.60
2018-04-08T16:56:53.931Z,7.43
2018-04-08T16:59:22.224Z,8.03
2018-04-08T17:01:50.526Z,7.57
2018-04-08T17:04:18.800Z,7.00
2018-04-08T17:06:48.770Z,7.23
2018-04-08T17:09:17.056Z,8.17
2018-04-08T17:11:45.321Z,7.73
2018-04-08T17:14:13.607Z,8.47
2018-04-08T17:16:42.659Z,10.17
2018-04-08T17:19:10.926Z,10.33
2018-04-08T17:21:39.311Z,9.77
2018-04-08T17:24:07.594Z,11.23
2018-04-08T17:26:36.579Z,12.60
2018-04-08T17:29:04.857Z,12.13
2018-04-08T17:31:33.229Z,17.23
2018-04-08T17:34:02.269Z,16.00
2018-04-08T17:36:30.538Z,10.90
2018-04-08T17:38:58.797Z,10.57
2018-04-08T17:41:27.820Z,10.10
2018-04-08T17:43:56.166Z,11.17
2018-04-08T17:46:25.201Z,10.70
2018-04-08T17:48:54.103Z,12.90
2018-04-08T17:51:22.346Z,9.27
2018-04-08T17:53:51.532Z,9.87
2018-04-08T17:56:19.769Z,9.50
2018-04-08T17:58:48.020Z,9.57
2018-04-08T18:01:16.264Z,10.80
2018-04-08T18:03:45.322Z,10.70
2018-04-08T18:06:13.646Z,10.43
2018-04-08T18:08:41.937Z,11.30
2018-04-08T18:11:10.235Z,10.33
2018-04-08T18:13:38.525Z,10.40
2018-04-08T18:16:06.982Z,10.20
2018-04-08T18:18:36.010Z,11.90
2018-04-08T18:21:05.173Z,11.40
2018-04-08T18:23:33.439Z,13.00
2018-04-08T18:26:01.727Z,12.37
2018-04-08T18:28:29.992Z,11.33
2018-04-08T18:30:58.260Z,11.13
2018-04-08T18:33:26.774Z,10.00
2018-04-08T18:35:55.020Z,9.40
2018-04-08T18:38:23.284Z,10.10
2018-04-08T18:40:51.518Z,10.60
2018-04-08T18:43:20.638Z,7.13
2018-04-08T18:45:49.657Z,6.77
2018-04-08T18:48:17.949Z,7.23
2018-04-08T18:50:46.220Z,7.27
2018-04-08T18:53:14.473Z,6.63
2018-04-08T18:55:43.515Z,8.23
2018-04-08T18:58:11.758Z,7.07
2018-04-08T19:00:40.816Z,7.43
2018-04-08T19:03:09.110Z,7.53
2018-04-08T19:05:37.437Z,6.80
2018-04-08T19:08:06.642Z,6.63
2018-04-08T19:10:34.898Z,5.80
2018-04-08T19:13:03.954Z,7.00
2018-04-08T19:15:32.307Z,7.93
2018-04-08T19:18:03.338Z,7.10
2018-04-08T19:20:31.678Z,7.00
2018-04-08T19:22:59.925Z,5.60
2018-04-08T19:25:28.302Z,7.17
2018-04-08T19:27:56.623Z,6.63
2018-04-08T19:30:24.857Z,5.77
2018-04-08T19:32:53.152Z,6.73
2018-04-08T19:35:21.426Z,5.87
2018-04-08T19:37:49.716Z,5.77
2018-04-08T19:40:18.131Z,7.00
2018-04-08T19:42:48.114Z,4.90
2018-04-08T19:45:16.407Z,4.90
2018-04-08T19:47:45.491Z,6.10
2018-04-08T19:50:13.726Z,5.07
2018-04-08T19:52:42.795Z,5.60
2018-04-08T19:55:11.043Z,5.30
2018-04-08T19:57:40.019Z,5.30
2018-04-08T20:00:08.300Z,5.20
2018-04-08T20:02:36.542Z,5.50
2018-04-08T20:05:04.815Z,5.03
2018-04-08T20:07:33.078Z,5.77
2018-04-08T20:10:01.327Z,5.00
2018-04-08T20:12:30.349Z,5.93
2018-04-08T20:14:58.637Z,5.97
2018-04-08T20:17:26.873Z,5.57
2018-04-08T20:19:55.173Z,6.37
2018-04-08T20:22:23.470Z,9.30
2018-04-08T20:24:51.740Z,8.90
2018-04-08T20:27:20.759Z,6.03
2018-04-08T20:29:49.023Z,8.60
2018-04-08T20:32:17.332Z,7.47
2018-04-08T20:34:45.626Z,9.77
2018-04-08T20:37:14.215Z,9.50
2018-04-08T20:39:42.615Z,10.70
2018-04-08T20:42:11.714Z,8.80
2018-04-08T20:44:40.780Z,8.63
2018-04-08T20:47:10.579Z,7.20
2018-04-08T20:49:38.851Z,7.50
2018-04-08T20:52:07.146Z,7.67
2018-04-08T20:54:35.411Z,6.50
2018-04-08T20:57:03.700Z,6.00
2018-04-08T20:59:33.350Z,6.37
2018-04-08T21:02:01.622Z,6.00
2018-04-08T21:04:29.860Z,6.70
2018-04-08T21:06:58.105Z,7.13
2018-04-08T21:09:27.162Z,6.43
2018-04-08T21:11:55.463Z,6.37
2018-04-08T21:14:23.745Z,5.70
2018-04-08T21:16:51.967Z,6.20
2018-04-08T21:19:20.227Z,6.90
2018-04-08T21:21:49.300Z,6.07
2018-04-08T21:24:17.535Z,6.10
2018-04-08T21:26:45.793Z,6.23
2018-04-08T21:29:14.828Z,6.87
2018-04-08T21:31:43.116Z,6.63
2018-04-08T21:34:11.390Z,6.57
2018-04-08T21:36:39.707Z,7.00
2018-04-08T21:39:08.131Z,6.43
2018-04-08T21:41:36.418Z,5.90
2018-04-08T21:44:04.696Z,7.30
2018-04-08T21:46:32.928Z,6.90
2018-04-08T21:49:01.202Z,6.43
2018-04-08T21:51:29.527Z,7.57
2018-04-08T21:53:57.727Z,6.40
2018-04-08T21:56:26.047Z,6.50
2018-04-08T21:58:54.264Z,6.63
2018-04-08T22:01:23.268Z,5.83
2018-04-08T22:03:52.338Z,6.63
2018-04-08T22:06:20.589Z,6.57
2018-04-08T22:08:48.870Z,6.53
2018-04-08T22:11:17.196Z,6.03
2018-04-08T22:13:46.235Z,6.27
2018-04-08T22:16:14.481Z,5.70
2018-04-08T22:18:42.737Z,6.30
2018-04-08T22:21:11.927Z,5.73
2018-04-08T22:23:40.196Z,6.80
2018-04-08T22:26:08.434Z,6.53
2018-04-08T22:28:36.692Z,5.43
2018-04-08T22:31:05.868Z,6.03
2018-04-08T22:33:34.100Z,6.97
2018-04-08T22:36:02.368Z,6.67
2018-04-08T22:38:30.607Z,7.23
2018-04-08T22:40:58.866Z,6.80
2018-04-08T22:43:27.156Z,5.40
2018-04-08T22:45:55.411Z,5.60
2018-04-08T22:48:23.669Z,6.70
2018-04-08T22:50:51.925Z,6.50
2018-04-08T22:53:20.951Z,6.27
2018-04-08T22:55:49.290Z,5.67
2018-04-08T22:58:17.599Z,6.80
2018-04-08T23:00:46.606Z,6.10
2018-04-08T23:03:15.769Z,6.07
2018-04-08T23:05:44.026Z,6.00
2018-04-08T23:08:13.148Z,6.07
2018-04-08T23:10:41.443Z,6.90
2018-04-08T23:13:11.405Z,6.67
2018-04-08T23:15:39.832Z,6.33
2018-04-08T23:18:08.204Z,6.23
2018-04-08T23:20:36.423Z,5.47
2018-04-08T23:23:05.454Z,6.20
2018-04-08T23:25:34.622Z,6.47
2018-04-08T23:28:03.644Z,6.73
2018-04-08T23:30:31.892Z,7.77
2018-04-08T23:33:00.138Z,7.57
2018-04-08T23:35:28.380Z,5.70
2018-04-08T23:37:56.629Z,6.20
2018-04-08T23:40:25.637Z,6.53
2018-04-08T23:42:54.674Z,6.40
2018-04-08T23:45:22.952Z,6.10
2018-04-08T23:47:51.181Z,6.90
2018-04-08T23:50:20.234Z,6.03
2018-04-08T23:52:48.473Z,5.20
2018-04-08T23:55:17.492Z,6.00
2018-04-08T23:57:45.754Z,5.50
